Time;durP1;ratioP1;P1;durP2;ratioP2;P2;SDS_P1;SDS_P2;PMS_P1;PMS_P2;Temp;Humidity;BMP_temperature;BMP_pressure;BME280_temperature;BME280_humidity;BME280_pressure;Samples;Min_cycle;Max_cycle;Signal;HPM_P1;HPM_P2
2023/10/21 00:01:28;;;;;;;13.00;9.18;;;14.10;99.90;;;;;;4973218;28;20028;-51
2023/10/21 00:03:54;;;;;;;2.72;2.53;;;14.10;99.90;;;;;;4971772;28;20398;-50
2023/10/21 00:06:19;;;;;;;1.83;1.27;;;14.10;99.90;;;;;;4973030;28;20035;-50
2023/10/21 00:08:45;;;;;;;2.17;1.50;;;14.10;99.90;;;;;;4971796;28;20109;-50
2023/10/21 00:11:12;;;;;;;3.78;1.40;;;14.10;99.90;;;;;;4972096;28;20041;-46
2023/10/21 00:13:38;;;;;;;5.35;1.20;;;14.10;99.90;;;;;;4972367;28;20102;-49
2023/10/21 00:16:04;;;;;;;1.10;1.00;;;14.10;99.90;;;;;;4972695;28;20443;-50
2023/10/21 00:18:29;;;;;;;2.97;0.98;;;14.10;99.90;;;;;;4972809;28;20038;-50
2023/10/21 00:20:55;;;;;;;4.47;1.20;;;14.10;99.90;;;;;;4972939;28;20023;-48
2023/10/21 00:23:21;;;;;;;1.13;0.95;;;14.10;99.90;;;;;;4972858;28;20027;-50
2023/10/21 00:25:46;;;;;;;3.10;1.30;;;14.10;99.90;;;;;;4972787;28;20023;-51
2023/10/21 00:28:12;;;;;;;2.92;1.08;;;14.20;99.90;;;;;;4972724;28;20050;-52
2023/10/21 00:30:38;;;;;;;5.88;1.00;;;14.20;99.90;;;;;;4972743;28;20404;-48
2023/10/21 00:33:03;;;;;;;1.73;1.58;;;14.30;99.90;;;;;;4972748;28;20034;-49
2023/10/21 00:35:31;;;;;;;2.25;1.10;;;14.40;99.90;;;;;;4972804;28;20067;-47
2023/10/21 00:37:57;;;;;;;1.80;0.77;;;14.40;99.90;;;;;;4972602;28;20391;-52
2023/10/21 00:40:22;;;;;;;3.80;1.13;;;14.40;99.90;;;;;;4972702;28;20027;-50
2023/10/21 00:42:48;;;;;;;3.20;1.05;;;14.40;99.90;;;;;;4973229;28;20030;-50
2023/10/21 00:45:14;;;;;;;0.93;0.93;;;14.40;99.90;;;;;;4972507;28;20027;-51
2023/10/21 00:47:40;;;;;;;1.85;0.90;;;14.50;99.90;;;;;;4974043;28;20089;-49
2023/10/21 00:50:06;;;;;;;3.47;1.10;;;14.50;99.90;;;;;;4976537;28;20039;-50
2023/10/21 00:52:40;;;;;;;0.65;0.63;;;14.50;99.90;;;;;;4976446;28;20023;-48
2023/10/21 00:55:08;;;;;;;2.28;0.80;;;14.60;99.90;;;;;;4976710;28;20041;-49
2023/10/21 00:57:35;;;;;;;0.90;0.82;;;14.70;99.90;;;;;;4976379;28;20403;-50
2023/10/21 01:00:01;;;;;;;0.68;0.65;;;14.70;99.90;;;;;;4976402;28;20069;-50
2023/10/21 01:02:26;;;;;;;2.72;0.68;;;14.80;99.90;;;;;;4976550;28;20031;-51
2023/10/21 01:04:52;;;;;;;2.35;0.60;;;14.90;99.90;;;;;;4976609;28;20046;-50
2023/10/21 01:07:17;;;;;;;0.65;0.65;;;14.90;99.90;;;;;;4976316;28;20131;-53
2023/10/21 01:09:43;;;;;;;0.68;0.68;;;15.00;99.90;;;;;;4976406;28;20102;-48
2023/10/21 01:12:08;;;;;;;1.30;0.60;;;15.00;99.90;;;;;;4976071;28;20081;-52
2023/10/21 01:14:34;;;;;;;1.67;0.70;;;15.10;99.90;;;;;;4975894;28;20026;-49
2023/10/21 01:16:59;;;;;;;1.55;0.77;;;15.10;99.90;;;;;;4975859;28;20037;-48
2023/10/21 01:19:25;;;;;;;0.63;0.60;;;15.10;99.90;;;;;;4976292;28;20038;-48
2023/10/21 01:21:51;;;;;;;1.92;0.60;;;15.10;99.90;;;;;;4975965;28;20070;-47
2023/10/21 01:24:17;;;;;;;0.50;0.50;;;15.10;99.90;;;;;;4974484;28;20065;-49
2023/10/21 01:26:42;;;;;;;0.50;0.50;;;15.20;99.90;;;;;;4975642;28;20109;-48
2023/10/21 01:29:11;;;;;;;7.90;1.45;;;15.30;99.90;;;;;;4975804;28;20149;-50
2023/10/21 01:31:36;;;;;;;0.50;0.45;;;15.30;99.90;;;;;;4975819;28;20023;-51
2023/10/21 01:34:02;;;;;;;1.10;0.40;;;15.40;99.90;;;;;;4975845;28;20510;-48
2023/10/21 01:36:27;;;;;;;0.30;0.30;;;15.50;99.90;;;;;;4975750;28;20490;-50
2023/10/21 01:38:53;;;;;;;2.55;0.50;;;15.40;99.90;;;;;;4975471;28;20037;-51
2023/10/21 01:41:18;;;;;;;1.30;0.50;;;15.30;99.90;;;;;;4975580;28;20023;-50
2023/10/21 01:43:44;;;;;;;0.50;0.50;;;15.30;99.90;;;;;;4974198;28;20130;-51
2023/10/21 01:46:10;;;;;;;0.60;0.30;;;15.30;99.90;;;;;;4975504;28;20034;-50
2023/10/21 01:48:36;;;;;;;0.55;0.50;;;15.20;99.90;;;;;;4975288;28;20034;-50
2023/10/21 01:51:05;;;;;;;1.17;0.50;;;15.20;99.90;;;;;;4975530;28;20494;-50
2023/10/21 01:53:33;;;;;;;0.52;0.40;;;15.20;99.90;;;;;;4975610;28;20118;-51
2023/10/21 01:56:00;;;;;;;0.50;0.35;;;15.20;99.90;;;;;;4976435;28;20054;-48
2023/10/21 01:58:26;;;;;;;0.60;0.50;;;15.10;99.90;;;;;;4977077;28;20019;-52
2023/10/21 02:00:52;;;;;;;1.33;0.70;;;15.10;99.90;;;;;;4977305;28;20085;-51
2023/10/21 02:03:17;;;;;;;0.68;0.40;;;15.10;99.90;;;;;;4975588;28;20114;-50
2023/10/21 02:05:43;;;;;;;0.20;0.20;;;14.70;99.90;;;;;;4975558;28;20038;-49
2023/10/21 02:08:08;;;;;;;0.32;0.30;;;15.00;99.90;;;;;;4974952;28;20031;-50
2023/10/21 02:10:38;;;;;;;0.85;0.40;;;15.00;99.90;;;;;;4974716;28;20518;-50
2023/10/21 02:13:03;;;;;;;0.50;0.50;;;14.90;99.90;;;;;;4975012;28;20034;-49
2023/10/21 02:15:29;;;;;;;1.58;0.40;;;15.00;99.90;;;;;;4975258;28;20018;-47
2023/10/21 02:17:54;;;;;;;0.50;0.40;;;14.90;99.90;;;;;;4975011;28;20499;-49
2023/10/21 02:20:20;;;;;;;1.13;1.00;;;14.90;99.90;;;;;;4974850;28;20031;-52
2023/10/21 02:22:45;;;;;;;0.60;0.55;;;14.80;99.90;;;;;;4974782;28;20513;-52
2023/10/21 02:25:13;;;;;;;2.72;0.47;;;14.80;99.90;;;;;;4974806;28;20495;-48
2023/10/21 02:27:42;;;;;;;0.32;0.30;;;14.80;99.90;;;;;;4974652;28;20039;-50
2023/10/21 02:30:13;;;;;;;1.13;0.60;;;14.70;99.90;;;;;;4974661;28;20035;-49
2023/10/21 02:32:46;;;;;;;1.00;0.40;;;14.70;99.90;;;;;;4974668;28;20424;-52
2023/10/21 02:35:11;;;;;;;1.20;0.32;;;14.70;99.90;;;;;;4974806;28;20023;-49
2023/10/21 02:37:37;;;;;;;0.80;0.20;;;14.90;99.90;;;;;;4974353;28;20394;-50
2023/10/21 02:40:03;;;;;;;5.20;0.65;;;14.80;99.90;;;;;;4973251;28;20498;-49
2023/10/21 02:42:29;;;;;;;0.93;0.30;;;14.80;99.90;;;;;;4975205;28;20030;-51
2023/10/21 02:44:55;;;;;;;0.88;0.20;;;14.90;99.90;;;;;;4975504;28;20117;-47
2023/10/21 02:47:20;;;;;;;0.90;0.40;;;14.90;99.90;;;;;;4974236;28;20039;-49
2023/10/21 02:49:46;;;;;;;2.42;0.20;;;15.00;99.90;;;;;;4972943;28;20578;-48
2023/10/21 02:52:13;;;;;;;0.20;0.20;;;15.00;99.90;;;;;;4974440;28;20035;-50
2023/10/21 02:54:38;;;;;;;0.10;0.10;;;15.00;99.90;;;;;;4974238;28;20019;-47
2023/10/21 02:57:04;;;;;;;0.38;0.22;;;15.10;99.90;;;;;;4974130;28;20030;-49
2023/10/21 02:59:30;;;;;;;4.68;0.20;;;15.10;99.90;;;;;;4974120;28;20019;-51
2023/10/21 03:01:56;;;;;;;0.20;0.20;;;15.10;99.90;;;;;;4974397;28;20019;-46
2023/10/21 03:04:21;;;;;;;2.03;0.80;;;15.20;99.90;;;;;;4974030;28;20039;-49
2023/10/21 03:06:47;;;;;;;2.65;0.30;;;15.20;99.90;;;;;;4973963;28;20101;-51
2023/10/21 03:09:13;;;;;;;0.22;0.22;;;15.20;99.90;;;;;;4972778;28;20030;-50
2023/10/21 03:11:41;;;;;;;0.15;0.15;;;15.10;99.90;;;;;;4972361;28;20375;-47
2023/10/21 03:14:06;;;;;;;0.85;0.20;;;15.20;99.90;;;;;;4973844;28;20034;-50
2023/10/21 03:16:32;;;;;;;2.63;0.20;;;15.20;99.90;;;;;;4973885;28;20027;-49
2023/10/21 03:18:58;;;;;;;0.10;0.10;;;15.20;99.90;;;;;;4973666;28;20551;-49
2023/10/21 03:21:23;;;;;;;7.28;0.98;;;15.10;99.90;;;;;;4973759;28;20061;-49
2023/10/21 03:23:49;;;;;;;2.72;0.40;;;15.00;99.90;;;;;;4973606;28;20054;-51
2023/10/21 03:26:14;;;;;;;0.40;0.40;;;15.00;99.90;;;;;;4973770;28;20110;-53
2023/10/21 03:28:41;;;;;;;2.55;0.28;;;15.00;99.90;;;;;;4972084;28;20023;-51
2023/10/21 03:31:06;;;;;;;0.35;0.35;;;15.00;99.90;;;;;;4972450;28;20042;-52
2023/10/21 03:33:32;;;;;;;2.22;0.30;;;15.00;99.90;;;;;;4973586;28;20027;-52
2023/10/21 03:36:05;;;;;;;0.22;0.22;;;15.00;99.90;;;;;;4973577;28;20444;-51
2023/10/21 03:38:31;;;;;;;3.95;0.20;;;14.90;99.90;;;;;;4973158;28;20026;-53
2023/10/21 03:40:59;;;;;;;1.25;0.47;;;15.00;99.90;;;;;;4973260;28;20533;-51
2023/10/21 03:43:26;;;;;;;0.70;0.52;;;14.90;99.90;;;;;;4971892;28;20035;-50
2023/10/21 03:45:52;;;;;;;2.72;0.35;;;14.90;99.90;;;;;;4973230;28;20019;-50
2023/10/21 03:48:18;;;;;;;0.85;0.47;;;14.90;99.90;;;;;;4971726;28;20026;-49
2023/10/21 03:50:44;;;;;;;0.95;0.28;;;14.90;99.90;;;;;;4972367;28;20410;-48
2023/10/21 03:53:09;;;;;;;3.88;0.45;;;14.80;99.90;;;;;;4973121;28;20030;-50
2023/10/21 03:55:35;;;;;;;0.40;0.30;;;14.90;99.90;;;;;;4973043;28;20065;-47
2023/10/21 03:58:00;;;;;;;0.28;0.28;;;14.90;99.90;;;;;;4971835;28;20025;-48
2023/10/21 04:00:26;;;;;;;2.28;0.40;;;14.90;99.90;;;;;;4972959;28;20031;-54
2023/10/21 04:02:51;;;;;;;1.05;0.50;;;14.90;99.90;;;;;;4973102;28;20074;-49
2023/10/21 04:05:17;;;;;;;0.52;0.50;;;14.90;99.90;;;;;;4973120;28;20031;-49
2023/10/21 04:07:44;;;;;;;0.40;0.40;;;14.80;99.90;;;;;;4972843;28;20034;-48
2023/10/21 04:10:10;;;;;;;0.52;0.40;;;14.80;99.90;;;;;;4972593;28;20030;-49
2023/10/21 04:12:35;;;;;;;0.50;0.50;;;14.70;99.90;;;;;;4972906;28;20027;-49
2023/10/21 04:15:01;;;;;;;0.40;0.40;;;14.60;99.90;;;;;;4972715;28;20051;-52
2023/10/21 04:17:27;;;;;;;0.55;0.55;;;14.60;99.90;;;;;;4971510;28;20027;-52
2023/10/21 04:19:52;;;;;;;1.02;0.30;;;14.50;99.90;;;;;;4971601;28;20514;-50
2023/10/21 04:22:18;;;;;;;0.32;0.32;;;14.50;99.90;;;;;;4972392;28;20098;-49
2023/10/21 04:24:43;;;;;;;0.50;0.50;;;14.40;99.90;;;;;;4972676;28;20041;-48
2023/10/21 04:27:09;;;;;;;1.85;0.60;;;14.40;99.90;;;;;;4972805;28;20034;-54
2023/10/21 04:29:34;;;;;;;1.85;0.50;;;14.30;99.90;;;;;;4972821;28;20123;-50
2023/10/21 04:32:00;;;;;;;1.85;0.45;;;14.30;99.90;;;;;;4972651;28;20033;-47
2023/10/21 04:34:25;;;;;;;0.95;0.50;;;14.30;99.90;;;;;;4972531;28;20026;-50
2023/10/21 04:36:51;;;;;;;1.55;0.40;;;14.20;99.90;;;;;;4972484;28;20089;-52
2023/10/21 04:39:16;;;;;;;1.65;0.47;;;14.20;99.90;;;;;;4972458;28;20536;-49
2023/10/21 04:41:42;;;;;;;3.78;0.57;;;14.20;99.90;;;;;;4972780;28;20113;-49
2023/10/21 04:44:09;;;;;;;0.88;0.63;;;14.10;99.90;;;;;;4972511;28;20109;-53
2023/10/21 04:46:35;;;;;;;0.50;0.50;;;14.10;99.90;;;;;;4972901;28;20031;-53
2023/10/21 04:49:00;;;;;;;0.50;0.50;;;14.20;99.90;;;;;;4972169;28;20069;-51
2023/10/21 04:51:26;;;;;;;0.60;0.60;;;14.20;99.90;;;;;;4972563;28;20027;-53
2023/10/21 04:53:51;;;;;;;0.70;0.70;;;14.20;99.90;;;;;;4972160;28;20026;-49
2023/10/21 04:56:17;;;;;;;0.60;0.50;;;14.20;99.90;;;;;;4972303;28;20030;-50
2023/10/21 04:58:42;;;;;;;0.55;0.35;;;14.20;99.90;;;;;;4972262;28;20490;-50
2023/10/21 05:01:10;;;;;;;1.33;0.70;;;14.10;99.90;;;;;;4972446;28;20479;-55
2023/10/21 05:03:36;;;;;;;0.50;0.50;;;14.20;99.90;;;;;;4972469;28;20023;-52
2023/10/21 05:06:01;;;;;;;1.27;0.60;;;14.20;99.90;;;;;;4972391;28;20490;-50
2023/10/21 05:08:27;;;;;;;0.50;0.50;;;14.30;99.90;;;;;;4972085;28;20031;-49
2023/10/21 05:10:52;;;;;;;1.05;0.85;;;14.30;99.90;;;;;;4972196;28;20038;-50
2023/10/21 05:13:18;;;;;;;3.83;1.15;;;14.30;99.90;;;;;;4972486;28;20062;-51
2023/10/21 05:15:44;;;;;;;0.60;0.60;;;14.30;99.90;;;;;;4972172;28;20030;-49
2023/10/21 05:18:09;;;;;;;0.50;0.50;;;14.30;99.90;;;;;;4971983;28;20027;-48
2023/10/21 05:20:35;;;;;;;0.63;0.60;;;14.30;99.90;;;;;;4970893;28;20019;-51
2023/10/21 05:23:00;;;;;;;1.15;0.70;;;14.30;99.90;;;;;;4972141;28;20062;-50
2023/10/21 05:25:26;;;;;;;1.65;0.50;;;14.30;99.90;;;;;;4971017;28;20479;-49
2023/10/21 05:27:51;;;;;;;1.27;0.60;;;14.40;99.90;;;;;;4971902;28;20491;-48
2023/10/21 05:30:17;;;;;;;1.25;0.60;;;14.40;99.90;;;;;;4971962;28;20059;-49
2023/10/21 05:32:43;;;;;;;1.17;1.05;;;14.40;99.90;;;;;;4972018;28;20410;-51
2023/10/21 05:35:08;;;;;;;0.55;0.55;;;14.40;99.90;;;;;;4974174;28;20483;-48
2023/10/21 05:37:35;;;;;;;3.55;0.80;;;14.40;99.90;;;;;;4975619;28;20040;-52
2023/10/21 05:40:02;;;;;;;2.42;0.77;;;14.40;99.90;;;;;;4975617;28;20015;-48
2023/10/21 05:42:28;;;;;;;0.82;0.82;;;14.40;99.90;;;;;;4974187;28;20499;-49
2023/10/21 05:44:53;;;;;;;1.70;0.70;;;14.40;99.90;;;;;;4975485;28;20037;-47
2023/10/21 05:47:19;;;;;;;1.05;0.45;;;14.40;99.90;;;;;;4975292;28;20027;-48
2023/10/21 05:49:44;;;;;;;0.55;0.50;;;14.30;99.90;;;;;;4975155;28;20097;-49
2023/10/21 05:52:10;;;;;;;0.93;0.93;;;14.30;99.90;;;;;;4975293;28;20030;-51
2023/10/21 05:54:35;;;;;;;0.70;0.40;;;14.30;99.90;;;;;;4975453;28;20127;-49
2023/10/21 05:57:02;;;;;;;0.30;0.30;;;14.40;99.90;;;;;;4975211;28;20015;-52
2023/10/21 05:59:28;;;;;;;2.63;0.60;;;14.40;99.90;;;;;;4974264;28;20029;-52
2023/10/21 06:01:53;;;;;;;2.50;1.13;;;14.40;99.90;;;;;;4975242;28;20027;-48
2023/10/21 06:04:19;;;;;;;1.92;0.38;;;14.40;99.90;;;;;;4975071;28;20022;-51
2023/10/21 06:06:45;;;;;;;0.85;0.60;;;14.40;99.90;;;;;;4975008;28;20102;-48
2023/10/21 06:09:10;;;;;;;1.08;0.52;;;14.40;99.90;;;;;;4975113;28;20023;-55
2023/10/21 06:11:36;;;;;;;0.50;0.32;;;14.40;99.90;;;;;;4974709;28;20463;-48
2023/10/21 06:14:01;;;;;;;1.08;0.50;;;14.40;99.90;;;;;;4974618;28;20035;-46
2023/10/21 06:16:27;;;;;;;1.23;0.65;;;14.40;99.90;;;;;;4974902;28;20462;-53
2023/10/21 06:18:53;;;;;;;0.45;0.45;;;14.40;99.90;;;;;;4974550;28;20426;-48
2023/10/21 06:21:18;;;;;;;1.08;0.40;;;14.40;99.90;;;;;;4974698;28;20376;-49
2023/10/21 06:23:44;;;;;;;3.20;0.60;;;14.40;99.90;;;;;;4974724;28;20039;-47
2023/10/21 06:26:11;;;;;;;0.40;0.40;;;14.30;99.90;;;;;;4974680;28;20496;-52
2023/10/21 06:28:38;;;;;;;1.50;0.60;;;14.30;99.90;;;;;;4974478;28;20027;-49
2023/10/21 06:31:04;;;;;;;1.30;0.43;;;14.30;99.90;;;;;;4974668;28;20439;-54
2023/10/21 06:33:30;;;;;;;0.55;0.38;;;14.40;99.90;;;;;;4974542;28;20050;-52
2023/10/21 06:35:55;;;;;;;3.90;0.50;;;14.50;99.90;;;;;;4974538;28;20018;-53
2023/10/21 06:38:21;;;;;;;1.73;0.50;;;14.50;99.90;;;;;;4973370;28;20019;-49
2023/10/21 06:40:46;;;;;;;0.68;0.57;;;14.60;99.90;;;;;;4974385;28;20022;-49
2023/10/21 06:43:12;;;;;;;0.60;0.60;;;14.70;99.90;;;;;;4974439;28;20550;-53
2023/10/21 06:45:38;;;;;;;2.22;0.80;;;15.20;99.90;;;;;;4973972;28;20626;-47
2023/10/21 06:48:04;;;;;;;1.52;0.40;;;15.50;99.90;;;;;;4974368;28;20059;-50
2023/10/21 06:50:31;;;;;;;0.30;0.30;;;15.50;99.90;;;;;;4974043;28;20095;-51
2023/10/21 06:52:57;;;;;;;0.38;0.38;;;15.40;99.90;;;;;;4972735;28;20027;-51
2023/10/21 06:55:22;;;;;;;2.00;0.30;;;15.70;99.90;;;;;;4974215;28;20030;-52
2023/10/21 06:57:50;;;;;;;0.75;0.30;;;16.40;99.90;;;;;;4976852;28;20029;-53
2023/10/21 07:00:16;;;;;;;0.50;0.20;;;17.00;99.90;;;;;;4975874;28;20031;-51
2023/10/21 07:02:41;;;;;;;0.20;0.20;;;17.50;99.90;;;;;;4993538;28;20029;-47
2023/10/21 07:05:09;;;;;;;0.25;0.25;;;17.90;99.90;;;;;;4977873;28;20022;-55
2023/10/21 07:07:37;;;;;;;1.02;0.50;;;18.00;99.90;;;;;;4973401;28;20101;-48
2023/10/21 07:10:03;;;;;;;0.50;0.40;;;17.60;99.90;;;;;;4973610;28;20089;-45
2023/10/21 07:12:29;;;;;;;1.02;0.30;;;17.20;99.90;;;;;;4973636;28;20538;-46
2023/10/21 07:14:54;;;;;;;0.30;0.30;;;16.60;99.90;;;;;;4973310;28;20027;-46
2023/10/21 07:17:20;;;;;;;1.55;0.32;;;16.20;99.90;;;;;;4973324;28;20033;-53
2023/10/21 07:19:45;;;;;;;1.83;0.68;;;15.90;99.90;;;;;;4972788;28;20019;-56
2023/10/21 07:22:11;;;;;;;0.28;0.28;;;15.70;99.90;;;;;;4973353;28;20031;-51
2023/10/21 07:24:36;;;;;;;0.43;0.40;;;15.50;99.90;;;;;;4973721;28;20035;-49
2023/10/21 07:27:02;;;;;;;0.55;0.40;;;15.50;99.90;;;;;;4973224;28;20041;-48
2023/10/21 07:29:28;;;;;;;0.63;0.30;;;15.40;99.90;;;;;;4973208;28;20034;-49
2023/10/21 07:31:54;;;;;;;0.57;0.40;;;15.30;99.90;;;;;;4972384;28;20035;-45
2023/10/21 07:34:22;;;;;;;1.27;0.68;;;15.20;99.90;;;;;;4972970;28;20135;-48
2023/10/21 07:36:47;;;;;;;0.45;0.38;;;15.10;99.90;;;;;;4973143;28;20030;-51
2023/10/21 07:39:13;;;;;;;0.35;0.32;;;15.10;99.90;;;;;;4973191;28;20399;-47
2023/10/21 07:41:38;;;;;;;0.45;0.43;;;15.00;99.90;;;;;;4973157;28;20023;-47
2023/10/21 07:44:04;;;;;;;3.22;0.30;;;14.90;99.90;;;;;;4973017;28;20117;-51
2023/10/21 07:46:29;;;;;;;1.35;0.30;;;15.00;99.90;;;;;;4973207;28;20031;-51
2023/10/21 07:48:56;;;;;;;2.17;0.30;;;15.10;99.90;;;;;;4971442;28;20394;-48
2023/10/21 07:51:22;;;;;;;0.30;0.30;;;15.10;99.90;;;;;;4973265;28;20521;-48
2023/10/21 07:53:48;;;;;;;0.77;0.35;;;15.10;99.90;;;;;;4972898;28;20062;-50
2023/10/21 07:56:13;;;;;;;1.70;0.35;;;15.00;99.90;;;;;;4972769;28;20023;-48
2023/10/21 07:58:42;;;;;;;1.35;0.38;;;15.10;99.90;;;;;;4972268;28;20484;-49
2023/10/21 08:01:07;;;;;;;1.48;0.55;;;15.10;99.90;;;;;;4973188;28;20070;-47
2023/10/21 08:03:34;;;;;;;0.40;0.40;;;15.10;99.90;;;;;;4972874;28;20027;-49
2023/10/21 08:06:00;;;;;;;0.95;0.30;;;15.00;99.90;;;;;;4972719;28;20525;-47
2023/10/21 08:08:25;;;;;;;3.00;0.40;;;15.00;99.90;;;;;;4972469;28;20031;-51
2023/10/21 08:10:51;;;;;;;1.05;0.57;;;15.10;99.90;;;;;;4972556;28;20034;-52
2023/10/21 08:13:16;;;;;;;2.13;0.40;;;15.10;99.90;;;;;;4973190;28;20035;-47
2023/10/21 08:15:42;;;;;;;0.22;0.22;;;15.20;99.90;;;;;;4972756;28;20023;-47
2023/10/21 08:18:07;;;;;;;1.05;0.60;;;15.20;99.90;;;;;;4971411;28;20174;-49
2023/10/21 08:20:33;;;;;;;0.77;0.50;;;15.20;99.90;;;;;;4972684;28;20054;-52
2023/10/21 08:22:58;;;;;;;0.63;0.30;;;15.30;99.90;;;;;;4972734;28;20121;-47
2023/10/21 08:25:24;;;;;;;2.45;0.50;;;15.30;99.90;;;;;;4972671;28;20147;-47
2023/10/21 08:27:49;;;;;;;1.58;0.68;;;15.40;99.90;;;;;;4972601;28;20031;-49
2023/10/21 08:30:15;;;;;;;4.95;0.70;;;15.40;99.90;;;;;;4972635;28;20089;-48
2023/10/21 08:32:41;;;;;;;1.50;0.40;;;15.40;99.90;;;;;;4972560;28;20035;-52
2023/10/21 08:35:07;;;;;;;3.10;0.63;;;15.50;99.90;;;;;;4972202;28;20019;-51
2023/10/21 08:37:32;;;;;;;0.70;0.43;;;15.50;99.90;;;;;;4972759;28;20129;-47
2023/10/21 08:39:58;;;;;;;1.75;1.08;;;15.60;99.90;;;;;;4972522;28;20078;-51
2023/10/21 08:42:25;;;;;;;4.55;0.50;;;15.60;99.90;;;;;;4972675;28;20402;-47
2023/10/21 08:44:54;;;;;;;0.93;0.50;;;15.70;99.90;;;;;;4972681;28;20417;-48
2023/10/21 08:47:21;;;;;;;1.48;0.85;;;15.80;99.90;;;;;;4972348;28;20023;-47
2023/10/21 08:49:48;;;;;;;0.43;0.40;;;16.00;99.90;;;;;;4972189;28;20203;-49
2023/10/21 08:52:14;;;;;;;2.95;0.80;;;16.10;99.90;;;;;;4971784;28;20540;-47
2023/10/21 08:54:45;;;;;;;2.22;0.60;;;16.10;99.90;;;;;;4972273;28;20034;-48
2023/10/21 08:57:11;;;;;;;3.10;0.60;;;16.10;99.90;;;;;;4971893;28;20030;-47
2023/10/21 08:59:38;;;;;;;1.15;0.43;;;16.00;99.90;;;;;;4970848;28;20562;-48
2023/10/21 09:02:05;;;;;;;1.15;0.88;;;15.90;99.90;;;;;;4972170;28;20035;-46
2023/10/21 09:04:32;;;;;;;0.75;0.65;;;16.00;99.90;;;;;;4972983;28;20069;-46
2023/10/21 09:06:59;;;;;;;1.92;0.60;;;16.00;99.90;;;;;;4970546;28;20089;-46
2023/10/21 09:09:29;;;;;;;2.17;0.80;;;16.00;99.90;;;;;;4974449;28;20510;-46
2023/10/21 09:12:10;;;;;;;1.50;0.50;;;16.00;99.90;;;;;;4975882;28;20050;-45
2023/10/21 09:14:55;;;;;;;3.05;1.27;;;16.00;99.90;;;;;;4974035;28;20146;-49
2023/10/21 09:17:33;;;;;;;3.38;1.42;;;15.90;99.90;;;;;;4974733;28;20121;-51
2023/10/21 09:19:59;;;;;;;2.42;0.93;;;15.80;99.90;;;;;;4975518;28;20027;-46
2023/10/21 09:22:27;;;;;;;3.58;1.67;;;15.80;99.90;;;;;;4975894;28;20035;-48
2023/10/21 09:25:09;;;;;;;1.30;0.60;;;15.80;99.90;;;;;;4975681;28;20490;-49
2023/10/21 09:27:34;;;;;;;0.43;0.40;;;15.80;99.90;;;;;;4975659;28;20022;-49
2023/10/21 09:30:00;;;;;;;1.40;1.02;;;15.80;99.90;;;;;;4975765;28;20031;-48
2023/10/21 09:32:29;;;;;;;1.48;0.88;;;15.90;99.90;;;;;;4974643;28;20406;-50
2023/10/21 09:35:12;;;;;;;2.40;0.80;;;;;;;;;;4975644;28;20372;-47
2023/10/21 09:37:38;;;;;;;4.75;0.52;;;;;;;;;;4971015;28;20023;-45
2023/10/21 09:40:06;;;;;;;4.95;0.70;;;;;;;;;;4973973;28;20053;-45
2023/10/21 09:42:33;;;;;;;2.88;0.80;;;;;;;;;;4985638;28;20498;-50
2023/10/21 09:44:59;;;;;;;3.45;0.85;;;;;;;;;;4993814;28;20034;-50
2023/10/21 09:47:25;;;;;;;4.85;1.48;;;;;;;;;;4977708;28;20031;-48
2023/10/21 09:49:54;;;;;;;3.28;0.73;;;;;;;;;;4976147;28;20105;-48
2023/10/21 09:52:24;;;;;;;16.73;1.63;;;;;;;;;;4975371;28;20027;-45
2023/10/21 09:54:56;;;;;;;2.42;0.60;;;;;;;;;;4975651;28;20549;-45
2023/10/21 09:57:23;;;;;;;4.03;0.60;;;;;;;;;;4973936;28;20035;-45
2023/10/21 09:59:49;;;;;;;1.90;0.82;;;;;;;;;;4992898;28;20118;-45
2023/10/21 10:02:15;;;;;;;1.52;0.52;;;;;;;;;;4994868;28;20109;-41
2023/10/21 10:04:41;;;;;;;1.88;0.57;;;;;;;;;;4994859;28;20030;-45
2023/10/21 10:07:07;;;;;;;0.60;0.55;;;;;;;;;;4994513;28;20029;-46
2023/10/21 10:09:37;;;;;;;2.15;0.68;;;;;;;;;;4994671;28;20505;-46
2023/10/21 10:12:10;;;;;;;2.55;0.68;;;;;;;;;;4976448;28;20031;-44
2023/10/21 10:14:36;;;;;;;2.65;0.70;;;;;;;;;;4975214;28;20019;-47
2023/10/21 10:17:06;;;;;;;1.98;0.82;;;;;;;;;;4974896;28;20031;-48
2023/10/21 10:19:42;;;;;;;3.72;0.93;;;;;;;;;;4974517;28;20106;-46
2023/10/21 10:22:18;;;;;;;2.15;0.90;;;;;;;;;;4974985;28;20046;-45
2023/10/21 10:24:51;;;;;;;3.53;0.55;;;;;;;;;;4975034;28;20043;-50
2023/10/21 10:27:18;;;;;;;8.93;1.02;;;;;;;;;;4974751;28;20458;-50
2023/10/21 10:29:46;;;;;;;6.05;0.70;;;;;;;;;;4975334;28;20096;-47
2023/10/21 10:32:15;;;;;;;2.80;0.63;;;;;;;;;;4974707;28;20150;-43
2023/10/21 10:34:49;;;;;;;11.13;0.95;;;;;;;;;;4974439;28;20049;-48
2023/10/21 10:37:26;;;;;;;3.08;1.75;;;;;;;;;;4974974;28;20085;-50
2023/10/21 10:39:54;;;;;;;11.68;6.43;;;;;;;;;;4974796;28;20425;-48
2023/10/21 10:42:20;;;;;;;14.25;8.57;;;;;;;;;;4974823;28;20023;-45
2023/10/21 10:44:46;;;;;;;8.77;1.27;;;;;;;;;;4972902;28;20410;-45
2023/10/21 10:47:12;;;;;;;1.27;0.70;;;17.50;99.90;;;;;;4973590;28;20049;-50
2023/10/21 10:49:57;;;;;;;3.70;0.80;;;17.40;99.90;;;;;;4973584;28;20030;-46
2023/10/21 10:52:35;;;;;;;1.08;0.95;;;17.40;99.90;;;;;;4974208;28;20037;-48
2023/10/21 10:55:03;;;;;;;2.70;0.88;;;17.50;99.90;;;;;;4973791;28;20033;-46
2023/10/21 10:57:29;;;;;;;1.25;0.60;;;17.40;99.90;;;;;;4973571;28;20089;-49
2023/10/21 10:59:55;;;;;;;2.95;0.70;;;17.50;99.90;;;;;;4974064;28;20078;-48
2023/10/21 11:02:20;;;;;;;2.95;0.60;;;17.60;99.90;;;;;;4974095;28;20490;-47
2023/10/21 11:04:49;;;;;;;0.95;0.70;;;17.60;99.90;;;;;;4974237;28;20054;-46
2023/10/21 11:07:21;;;;;;;2.03;0.43;;;17.60;99.90;;;;;;4973815;28;20475;-52
2023/10/21 11:09:46;;;;;;;2.33;1.25;;;17.60;99.90;;;;;;4973853;28;20101;-49
2023/10/21 11:12:14;;;;;;;2.70;0.85;;;17.50;99.90;;;;;;4973693;28;20031;-45
2023/10/21 11:14:40;;;;;;;4.05;0.68;;;17.60;99.90;;;;;;4974114;28;20030;-49
2023/10/21 11:17:06;;;;;;;6.07;1.00;;;17.50;99.90;;;;;;4973619;28;20019;-51
2023/10/21 11:19:32;;;;;;;2.22;0.90;;;17.60;99.90;;;;;;4973903;28;20019;-45
2023/10/21 11:21:58;;;;;;;1.73;0.73;;;17.70;99.90;;;;;;4974065;28;20030;-47
2023/10/21 11:24:26;;;;;;;2.15;0.43;;;17.70;99.90;;;;;;4973520;28;20034;-48
2023/10/21 11:26:52;;;;;;;0.35;0.32;;;17.70;99.90;;;;;;4973319;28;20047;-46
2023/10/21 11:29:18;;;;;;;1.92;0.60;;;17.70;99.90;;;;;;4972353;28;20035;-50
2023/10/21 11:31:44;;;;;;;2.70;0.50;;;17.80;99.90;;;;;;4972699;28;20311;-50
2023/10/21 11:34:18;;;;;;;2.35;0.93;;;17.80;99.90;;;;;;4973417;28;20073;-49
2023/10/21 11:36:46;;;;;;;1.80;0.73;;;17.70;99.90;;;;;;4973393;28;20406;-44
2023/10/21 11:39:14;;;;;;;3.58;0.70;;;17.70;99.90;;;;;;4973149;28;20099;-49
2023/10/21 11:41:48;;;;;;;2.13;1.15;;;17.80;99.90;;;;;;4973376;28;20077;-50
2023/10/21 11:44:24;;;;;;;6.50;0.88;;;17.90;99.90;;;;;;4973107;28;20031;-48
2023/10/21 11:46:49;;;;;;;2.88;0.60;;;18.00;99.90;;;;;;4973144;28;20398;-48
2023/10/21 11:49:15;;;;;;;2.80;0.68;;;18.10;99.90;;;;;;4972833;28;20085;-49
2023/10/21 11:51:52;;;;;;;1.55;0.47;;;18.20;99.90;;;;;;4973151;28;20022;-48
2023/10/21 11:54:33;;;;;;;0.73;0.60;;;18.10;99.90;;;;;;4973203;28;20086;-47
2023/10/21 12:13:47;;;;;;;2.05;1.50;;;17.70;99.90;;;;;;4936220;28;20234;-51
2023/10/21 12:19:17;;;;;;;1.13;0.50;;;17.60;99.90;;;;;;4972757;28;20023;-48
2023/10/21 12:43:18;;;;;;;1.90;0.98;;;17.80;99.90;;;;;;4972558;28;20026;-49
2023/10/21 12:45:40;;;;;;;1.75;0.68;;;18.00;99.90;;;;;;4976373;28;20035;-48
2023/10/21 12:48:08;;;;;;;5.32;0.70;;;18.00;99.90;;;;;;4976558;28;20031;-52
2023/10/21 12:50:34;;;;;;;2.30;0.70;;;18.10;99.90;;;;;;4976511;28;20059;-54
2023/10/21 12:53:01;;;;;;;1.88;0.93;;;18.20;99.90;;;;;;4976148;28;20069;-46
2023/10/21 12:55:26;;;;;;;1.73;0.60;;;18.20;99.90;;;;;;4976190;28;20019;-48
2023/10/21 12:57:53;;;;;;;1.05;0.55;;;18.30;99.90;;;;;;4975831;28;20114;-50
2023/10/21 13:00:20;;;;;;;1.75;0.63;;;18.30;99.90;;;;;;4976159;28;20014;-47
2023/10/21 13:02:46;;;;;;;3.85;1.25;;;18.40;99.90;;;;;;4976366;28;20027;-50
2023/10/21 13:05:13;;;;;;;2.35;0.75;;;18.30;99.90;;;;;;4976267;28;20356;-50
2023/10/21 13:07:39;;;;;;;1.73;0.60;;;18.30;99.90;;;;;;4975960;28;20101;-51
2023/10/21 13:10:09;;;;;;;1.13;0.60;;;18.20;99.90;;;;;;4976147;28;20065;-48
2023/10/21 13:12:39;;;;;;;1.55;0.82;;;18.30;99.90;;;;;;4976505;28;20050;-49
2023/10/21 13:15:09;;;;;;;1.30;0.60;;;18.10;99.90;;;;;;4976067;28;20015;-49
2023/10/21 13:17:35;;;;;;;1.95;0.65;;;18.00;99.90;;;;;;4975895;28;20102;-47
2023/10/21 13:20:01;;;;;;;4.20;1.02;;;18.00;99.90;;;;;;4975840;28;20072;-47
2023/10/21 13:22:26;;;;;;;2.53;0.50;;;18.00;99.90;;;;;;4975552;28;20035;-46
2023/10/21 13:24:52;;;;;;;2.20;0.98;;;18.00;99.90;;;;;;4975714;28;20042;-46
2023/10/21 13:27:17;;;;;;;0.80;0.55;;;18.20;99.90;;;;;;4974166;28;20038;-46
2023/10/21 13:29:42;;;;;;;1.30;0.50;;;18.20;99.90;;;;;;4975369;28;20117;-49
2023/10/21 13:32:08;;;;;;;2.80;0.70;;;18.20;99.90;;;;;;4975606;28;20150;-48
2023/10/21 13:34:34;;;;;;;1.73;0.60;;;18.20;99.90;;;;;;4975706;28;20492;-48